createdAt,value
2019-03-30T00:00:16.228Z,92.51
2019-03-30T00:01:16.220Z,92.20
2019-03-30T00:02:16.206Z,91.99
2019-03-30T00:03:16.211Z,93.14
2019-03-30T00:04:16.218Z,93.66
2019-03-30T00:05:16.216Z,93.45
2019-03-30T00:06:16.193Z,93.35
2019-03-30T00:07:16.187Z,93.87
2019-03-30T00:08:16.183Z,94.59
2019-03-30T00:09:16.182Z,94.28
2019-03-30T00:10:16.175Z,93.87
2019-03-30T00:11:16.197Z,94.70
2019-03-30T00:12:16.187Z,94.43
2019-03-30T00:13:16.152Z,93.18
2019-03-30T00:14:17.160Z,93.60
2019-03-30T00:15:16.157Z,93.70
2019-03-30T00:16:16.147Z,93.60
2019-03-30T00:17:16.131Z,93.80
2019-03-30T00:18:16.142Z,94.12
2019-03-30T00:19:16.138Z,94.53
2019-03-30T00:20:16.112Z,94.53
2019-03-30T00:21:16.098Z,94.64
2019-03-30T00:22:16.089Z,94.74
2019-03-30T00:23:16.095Z,94.53
2019-03-30T00:24:16.153Z,94.43
2019-03-30T00:25:16.080Z,93.95
2019-03-30T00:26:16.072Z,94.64
2019-03-30T00:27:16.088Z,95.47
2019-03-30T00:28:16.083Z,94.99
2019-03-30T00:29:16.078Z,94.47
2019-03-30T00:30:18.996Z,95.09
2019-03-30T00:31:16.064Z,94.99
2019-03-30T00:32:16.052Z,94.57
2019-03-30T00:33:16.049Z,94.57
2019-03-30T00:34:16.039Z,94.37
2019-03-30T00:35:16.043Z,94.47
2019-03-30T00:36:16.028Z,94.99
2019-03-30T00:37:16.013Z,94.57
2019-03-30T00:38:16.010Z,94.47
2019-03-30T00:39:16.013Z,94.62
2019-03-30T00:40:15.990Z,95.25
2019-03-30T00:41:15.976Z,95.45
2019-03-30T00:42:15.967Z,95.20
2019-03-30T00:43:15.964Z,95.09
2019-03-30T00:44:15.968Z,95.03
2019-03-30T00:45:15.966Z,94.72
2019-03-30T00:46:15.939Z,95.14
2019-03-30T00:47:15.921Z,95.30
2019-03-30T00:48:15.916Z,95.35
2019-03-30T00:49:15.941Z,94.72
2019-03-30T00:50:15.912Z,94.31
2019-03-30T00:51:15.933Z,94.76
2019-03-30T00:52:15.915Z,94.24
2019-03-30T00:53:15.891Z,94.24
2019-03-30T00:54:15.902Z,94.29
2019-03-30T00:55:15.881Z,94.39
2019-03-30T00:56:15.876Z,94.39
2019-03-30T00:57:15.863Z,94.60
2019-03-30T00:58:15.870Z,95.39
2019-03-30T00:59:15.874Z,95.29
2019-03-30T01:00:15.861Z,95.08
2019-03-30T01:01:15.862Z,95.39
2019-03-30T01:02:15.847Z,95.70
2019-03-30T01:03:15.829Z,95.70
2019-03-30T01:04:15.834Z,95.91
2019-03-30T01:05:15.811Z,95.43
2019-03-30T01:06:15.812Z,96.12
2019-03-30T01:07:15.807Z,96.64
2019-03-30T01:08:15.799Z,96.59
2019-03-30T01:09:15.803Z,96.08
2019-03-30T01:10:15.803Z,95.91
2019-03-30T01:11:15.777Z,96.53
2019-03-30T01:12:15.771Z,96.64
2019-03-30T01:13:15.785Z,96.75
2019-03-30T01:14:15.795Z,95.91
2019-03-30T01:15:15.848Z,96.06
2019-03-30T01:16:15.767Z,95.85
2019-03-30T01:17:15.766Z,95.75
2019-03-30T01:18:15.832Z,95.43
2019-03-30T01:19:15.767Z,95.85
2019-03-30T01:20:15.743Z,96.43
2019-03-30T01:21:15.735Z,96.58
2019-03-30T01:22:15.724Z,96.43
2019-03-30T01:23:15.720Z,96.53
2019-03-30T01:24:15.716Z,96.75
2019-03-30T01:25:15.728Z,97.06
2019-03-30T01:26:15.705Z,96.43
2019-03-30T01:27:15.685Z,96.53
2019-03-30T01:28:15.682Z,96.85
2019-03-30T01:29:15.679Z,96.75
2019-03-30T01:30:23.093Z,96.43
2019-03-30T01:31:17.646Z,97.10
2019-03-30T01:32:15.661Z,96.69
2019-03-30T01:33:15.639Z,96.58
2019-03-30T01:34:15.659Z,97.00
2019-03-30T01:35:15.730Z,95.85
2019-03-30T01:36:15.623Z,96.26
2019-03-30T01:37:15.622Z,95.79
2019-03-30T01:38:15.621Z,95.58
2019-03-30T01:39:15.612Z,95.58
2019-03-30T01:40:15.594Z,95.68
2019-03-30T01:41:15.588Z,95.79
2019-03-30T01:42:15.577Z,95.62
2019-03-30T01:43:15.572Z,95.68
2019-03-30T01:44:15.576Z,95.68
2019-03-30T01:45:15.561Z,95.52
2019-03-30T01:46:15.561Z,96.21
2019-03-30T01:47:15.544Z,96.73
2019-03-30T01:48:15.546Z,96.89
2019-03-30T01:49:15.565Z,97.00
2019-03-30T01:50:17.782Z,96.58
2019-03-30T01:51:16.530Z,96.89
2019-03-30T01:52:15.522Z,96.62
2019-03-30T01:53:15.518Z,96.00
2019-03-30T01:54:15.530Z,96.21
2019-03-30T01:55:15.512Z,96.00
2019-03-30T01:56:16.500Z,96.00
2019-03-30T01:57:15.495Z,95.79
2019-03-30T01:58:15.477Z,95.42
2019-03-30T01:59:15.474Z,95.10
2019-03-30T02:00:15.466Z,95.94
2019-03-30T02:01:15.473Z,95.73
2019-03-30T02:02:15.442Z,95.52
2019-03-30T02:03:16.450Z,95.88
2019-03-30T02:04:15.457Z,96.15
2019-03-30T02:05:15.443Z,95.89
2019-03-30T02:06:15.437Z,96.04
2019-03-30T02:07:15.417Z,96.04
2019-03-30T02:08:15.407Z,96.15
2019-03-30T02:09:15.444Z,96.15
2019-03-30T02:10:15.401Z,96.04
2019-03-30T02:11:15.395Z,96.25
2019-03-30T02:12:15.386Z,96.15
2019-03-30T02:13:15.395Z,96.77
2019-03-30T02:14:15.395Z,97.14
2019-03-30T02:15:15.365Z,96.52
2019-03-30T02:16:15.366Z,96.83
2019-03-30T02:17:15.356Z,96.52
2019-03-30T02:18:15.340Z,96.94
2019-03-30T02:19:15.348Z,96.94
2019-03-30T02:20:15.337Z,97.30
2019-03-30T02:21:15.317Z,96.56
2019-03-30T02:22:15.337Z,96.46
2019-03-30T02:23:15.322Z,95.94
2019-03-30T02:24:15.330Z,96.50
2019-03-30T02:25:15.326Z,96.15
2019-03-30T02:26:15.328Z,95.83
2019-03-30T02:27:15.323Z,95.78
2019-03-30T02:28:15.314Z,95.78
2019-03-30T02:29:15.318Z,96.30
2019-03-30T02:30:15.306Z,95.78
2019-03-30T02:31:15.296Z,96.30
2019-03-30T02:32:15.283Z,96.30
2019-03-30T02:33:15.335Z,96.19
2019-03-30T02:34:15.282Z,96.19
2019-03-30T02:35:15.261Z,96.19
2019-03-30T02:36:16.264Z,96.09
2019-03-30T02:37:15.249Z,96.61
2019-03-30T02:38:15.242Z,96.71
2019-03-30T02:39:15.249Z,97.03
2019-03-30T02:40:15.230Z,96.61
2019-03-30T02:41:15.215Z,96.71
2019-03-30T02:42:15.225Z,96.82
2019-03-30T02:43:15.214Z,96.61
2019-03-30T02:44:15.209Z,96.82
2019-03-30T02:45:15.209Z,96.92
2019-03-30T02:46:15.184Z,97.24
2019-03-30T02:47:15.190Z,96.71
2019-03-30T02:48:15.181Z,96.61
2019-03-30T02:49:15.184Z,96.71
2019-03-30T02:50:15.160Z,96.82
2019-03-30T02:51:15.158Z,96.71
2019-03-30T02:52:15.158Z,97.13
2019-03-30T02:53:15.139Z,97.03
2019-03-30T02:54:15.150Z,96.86
2019-03-30T02:55:15.129Z,97.28
2019-03-30T02:56:15.122Z,97.07
2019-03-30T02:57:15.116Z,97.24
2019-03-30T02:58:15.100Z,96.97
2019-03-30T02:59:15.122Z,97.03
2019-03-30T03:00:15.093Z,96.86
2019-03-30T03:01:15.106Z,96.97
2019-03-30T03:02:15.112Z,96.66
2019-03-30T03:03:15.114Z,97.17
2019-03-30T03:04:15.104Z,96.97
2019-03-30T03:05:15.117Z,97.44
2019-03-30T03:06:15.079Z,97.24
2019-03-30T03:07:15.075Z,97.24
2019-03-30T03:08:15.075Z,97.07
2019-03-30T03:09:15.065Z,97.34
2019-03-30T03:10:15.064Z,96.97
2019-03-30T03:11:15.045Z,96.86
2019-03-30T03:12:15.050Z,96.97
2019-03-30T03:13:15.047Z,96.97
2019-03-30T03:14:15.039Z,96.80
2019-03-30T03:15:15.037Z,96.66
2019-03-30T03:16:15.028Z,97.17
2019-03-30T03:17:15.010Z,96.80
2019-03-30T03:18:15.010Z,97.11
2019-03-30T03:19:15.000Z,97.27
2019-03-30T03:20:15.000Z,96.95
2019-03-30T03:21:14.982Z,96.53
2019-03-30T03:22:14.982Z,96.22
2019-03-30T03:23:14.987Z,96.53
2019-03-30T03:24:14.964Z,96.22
2019-03-30T03:25:14.972Z,96.43
2019-03-30T03:26:14.950Z,97.11
2019-03-30T03:27:14.947Z,97.01
2019-03-30T03:28:14.976Z,96.70
2019-03-30T03:29:14.942Z,97.01
2019-03-30T03:30:14.952Z,96.80
2019-03-30T03:31:14.929Z,97.32
2019-03-30T03:32:14.932Z,97.27
2019-03-30T03:33:14.920Z,97.11
2019-03-30T03:34:14.912Z,97.11
2019-03-30T03:35:14.935Z,97.01
2019-03-30T03:36:14.899Z,97.37
2019-03-30T03:37:14.893Z,97.10
2019-03-30T03:38:14.883Z,96.74
2019-03-30T03:39:14.878Z,97.37
2019-03-30T03:40:14.880Z,97.16
2019-03-30T03:41:14.865Z,96.80
2019-03-30T03:42:14.857Z,96.91
2019-03-30T03:43:14.869Z,97.22
2019-03-30T03:44:14.848Z,97.01
2019-03-30T03:45:14.848Z,97.22
2019-03-30T03:46:14.838Z,97.22
2019-03-30T03:47:14.814Z,97.43
2019-03-30T03:48:14.823Z,97.32
2019-03-30T03:49:14.806Z,97.32
2019-03-30T03:50:14.820Z,97.22
2019-03-30T03:51:25.561Z,97.32
2019-03-30T03:52:16.790Z,97.22
2019-03-30T03:53:14.784Z,97.53
2019-03-30T03:54:14.777Z,97.32
2019-03-30T03:55:14.787Z,97.38
2019-03-30T03:56:14.758Z,97.32
2019-03-30T03:57:14.767Z,97.11
2019-03-30T03:58:14.761Z,97.22
2019-03-30T03:59:14.762Z,97.22
2019-03-30T04:00:14.767Z,97.43
2019-03-30T04:01:14.749Z,97.22
2019-03-30T04:02:14.738Z,97.32
2019-03-30T04:03:14.745Z,97.53
2019-03-30T04:04:14.730Z,96.91
2019-03-30T04:05:14.728Z,97.01
2019-03-30T04:06:14.711Z,96.74
2019-03-30T04:07:14.722Z,97.27
2019-03-30T04:08:14.721Z,97.16
2019-03-30T04:09:14.722Z,97.16
2019-03-30T04:10:14.731Z,97.37
2019-03-30T04:11:14.711Z,97.00
2019-03-30T04:12:14.710Z,97.10
2019-03-30T04:13:14.695Z,97.27
2019-03-30T04:14:14.699Z,97.37
2019-03-30T04:15:14.696Z,97.05
2019-03-30T04:16:14.673Z,96.95
2019-03-30T04:17:14.679Z,96.89
2019-03-30T04:18:14.655Z,96.78
2019-03-30T04:19:14.652Z,96.68
2019-03-30T04:20:14.657Z,96.89
2019-03-30T04:21:14.666Z,97.10
2019-03-30T04:22:14.662Z,96.89
2019-03-30T04:23:14.650Z,96.89
2019-03-30T04:24:14.641Z,97.31
2019-03-30T04:25:14.650Z,97.27
2019-03-30T04:26:14.629Z,97.37
2019-03-30T04:27:14.655Z,97.37
2019-03-30T04:28:14.651Z,97.52
2019-03-30T04:29:14.632Z,97.62
2019-03-30T04:30:14.636Z,97.31
2019-03-30T04:31:14.618Z,97.89
2019-03-30T04:32:14.601Z,97.78
2019-03-30T04:33:14.607Z,97.78
2019-03-30T04:34:14.596Z,97.78
2019-03-30T04:35:14.595Z,97.89
2019-03-30T04:36:14.575Z,97.83
2019-03-30T04:37:14.595Z,97.78
2019-03-30T04:38:14.798Z,97.94
2019-03-30T04:39:14.585Z,97.72
2019-03-30T04:40:14.594Z,97.58
2019-03-30T04:41:14.574Z,97.83
2019-03-30T04:42:14.568Z,97.68
2019-03-30T04:43:14.567Z,97.41
2019-03-30T04:44:14.558Z,97.31
2019-03-30T04:45:14.553Z,97.72
2019-03-30T04:46:14.612Z,97.62
2019-03-30T04:47:14.530Z,97.72
2019-03-30T04:48:14.524Z,97.31
2019-03-30T04:49:14.523Z,97.62
2019-03-30T04:50:14.532Z,97.62
2019-03-30T04:51:14.494Z,97.62
2019-03-30T04:52:14.491Z,97.62
2019-03-30T04:53:14.482Z,97.62
2019-03-30T04:54:14.479Z,97.72
2019-03-30T04:55:14.495Z,97.83
2019-03-30T04:56:14.462Z,97.41
2019-03-30T04:57:14.476Z,97.94
2019-03-30T04:58:14.472Z,97.62
2019-03-30T04:59:14.464Z,97.56
2019-03-30T05:00:14.462Z,97.77
2019-03-30T05:01:14.457Z,98.08
2019-03-30T05:02:14.448Z,98.04
2019-03-30T05:03:14.444Z,98.04
2019-03-30T05:04:14.424Z,97.62
2019-03-30T05:05:14.430Z,98.04
2019-03-30T05:06:14.418Z,97.94
2019-03-30T05:07:14.404Z,98.25
2019-03-30T05:08:14.406Z,97.94
2019-03-30T05:09:14.435Z,98.14
2019-03-30T05:10:14.402Z,97.83
2019-03-30T05:11:14.376Z,97.62
2019-03-30T05:12:14.370Z,97.83
2019-03-30T05:13:14.375Z,97.83
2019-03-30T05:14:14.358Z,98.14
2019-03-30T05:15:14.358Z,97.83
2019-03-30T05:16:14.340Z,97.83
2019-03-30T05:17:14.335Z,97.98
2019-03-30T05:18:14.328Z,97.88
2019-03-30T05:19:14.341Z,97.88
2019-03-30T05:20:14.354Z,98.02
2019-03-30T05:21:14.313Z,97.81
2019-03-30T05:22:16.721Z,98.13
2019-03-30T05:23:15.308Z,97.71
2019-03-30T05:24:14.297Z,97.71
2019-03-30T05:25:14.305Z,97.81
2019-03-30T05:26:14.287Z,98.24
2019-03-30T05:27:14.274Z,97.92
2019-03-30T05:28:14.279Z,98.13
2019-03-30T05:29:14.258Z,97.81
2019-03-30T05:30:14.258Z,98.24
2019-03-30T05:31:14.260Z,97.98
2019-03-30T05:32:14.242Z,97.81
2019-03-30T05:33:14.235Z,98.02
2019-03-30T05:34:14.232Z,97.81
2019-03-30T05:35:14.224Z,97.81
2019-03-30T05:36:14.221Z,97.71
2019-03-30T05:37:14.204Z,97.81
2019-03-30T05:38:14.199Z,97.77
2019-03-30T05:39:14.194Z,97.67
2019-03-30T05:40:14.179Z,97.67
2019-03-30T05:41:14.189Z,97.35
2019-03-30T05:42:14.167Z,97.98
2019-03-30T05:43:14.164Z,97.35
2019-03-30T05:44:14.160Z,97.62
2019-03-30T05:45:14.145Z,97.41
2019-03-30T05:46:14.151Z,97.94
2019-03-30T05:47:14.142Z,97.47
2019-03-30T05:48:14.127Z,97.72
2019-03-30T05:49:14.120Z,97.00
2019-03-30T05:50:14.129Z,96.89
2019-03-30T05:51:14.126Z,97.00
2019-03-30T05:52:25.841Z,96.74
2019-03-30T05:53:16.098Z,96.84
2019-03-30T05:54:14.088Z,96.26
2019-03-30T05:55:14.092Z,96.01
2019-03-30T05:56:14.113Z,96.47
2019-03-30T05:57:14.090Z,96.22
2019-03-30T05:58:14.072Z,96.16
2019-03-30T05:59:14.063Z,96.01
2019-03-30T06:00:14.053Z,96.22
2019-03-30T06:01:14.066Z,95.55
2019-03-30T06:02:14.041Z,95.65
2019-03-30T06:03:14.039Z,95.28
2019-03-30T06:04:14.038Z,95.03
2019-03-30T06:05:14.086Z,95.03
2019-03-30T06:06:14.022Z,94.46
2019-03-30T06:07:14.004Z,94.98
2019-03-30T06:08:13.995Z,94.63
2019-03-30T06:09:13.990Z,94.10
2019-03-30T06:10:13.981Z,94.31
2019-03-30T06:11:13.989Z,94.58
2019-03-30T06:12:13.968Z,94.17
2019-03-30T06:13:13.973Z,93.91
2019-03-30T06:14:13.967Z,93.60
2019-03-30T06:15:13.954Z,92.77
2019-03-30T06:16:13.955Z,91.83
2019-03-30T06:17:13.935Z,91.89
2019-03-30T06:18:13.948Z,91.20
2019-03-30T06:19:13.943Z,91.93
2019-03-30T06:20:13.936Z,92.25
2019-03-30T06:21:13.939Z,92.41
2019-03-30T06:22:13.914Z,91.75
2019-03-30T06:23:13.907Z,90.70
2019-03-30T06:24:13.902Z,90.87
2019-03-30T06:25:13.902Z,90.35
2019-03-30T06:26:13.913Z,90.00
2019-03-30T06:27:13.901Z,89.48
2019-03-30T06:28:13.884Z,90.52
2019-03-30T06:29:13.899Z,90.93
2019-03-30T06:30:13.883Z,92.14
2019-03-30T06:31:14.897Z,91.66
2019-03-30T06:32:13.872Z,90.41
2019-03-30T06:33:13.892Z,90.10
2019-03-30T06:34:13.886Z,90.20
2019-03-30T06:35:13.876Z,90.44
2019-03-30T06:36:13.886Z,89.70
2019-03-30T06:37:13.872Z,90.56
2019-03-30T06:38:13.859Z,90.66
2019-03-30T06:39:13.849Z,91.24
2019-03-30T06:40:13.840Z,90.62
2019-03-30T06:41:13.841Z,90.45
2019-03-30T06:42:13.825Z,88.59
2019-03-30T06:43:13.817Z,89.21
2019-03-30T06:44:13.815Z,88.38
2019-03-30T06:45:13.802Z,90.45
2019-03-30T06:46:13.805Z,89.36
2019-03-30T06:47:13.801Z,90.08
2019-03-30T06:48:13.803Z,88.31
2019-03-30T06:49:13.790Z,91.02
2019-03-30T06:50:13.786Z,89.92
2019-03-30T06:51:13.791Z,90.54
2019-03-30T06:52:13.764Z,90.26
2019-03-30T06:53:13.763Z,90.20
2019-03-30T06:54:14.936Z,90.93
2019-03-30T06:55:14.744Z,91.83
2019-03-30T06:56:13.814Z,89.85
2019-03-30T06:57:13.742Z,89.54
2019-03-30T06:58:14.733Z,89.43
2019-03-30T06:59:13.716Z,89.54
2019-03-30T07:00:13.704Z,90.16
2019-03-30T07:01:13.724Z,91.20
2019-03-30T07:02:13.688Z,91.62
2019-03-30T07:03:13.682Z,91.20
2019-03-30T07:04:13.676Z,91.14
2019-03-30T07:05:13.667Z,90.72
2019-03-30T07:06:13.676Z,91.72
2019-03-30T07:07:13.646Z,92.30
2019-03-30T07:08:13.646Z,91.49
2019-03-30T07:09:13.639Z,89.37
2019-03-30T07:10:13.631Z,90.58
2019-03-30T07:11:21.119Z,90.54
2019-03-30T07:12:15.618Z,88.44
2019-03-30T07:13:13.605Z,89.48
2019-03-30T07:14:13.608Z,89.54
2019-03-30T07:15:13.596Z,89.86
2019-03-30T07:16:13.611Z,89.65
2019-03-30T07:17:13.585Z,89.09
2019-03-30T07:18:13.580Z,86.74
2019-03-30T07:19:13.594Z,86.57
2019-03-30T07:20:13.578Z,88.44
2019-03-30T07:21:13.584Z,90.17
2019-03-30T07:22:13.566Z,88.98
2019-03-30T07:23:13.563Z,85.42
2019-03-30T07:24:13.561Z,88.76
2019-03-30T07:25:13.617Z,86.40
2019-03-30T07:26:13.561Z,84.66
2019-03-30T07:27:13.542Z,82.28
2019-03-30T07:28:13.537Z,82.40
2019-03-30T07:29:13.529Z,80.00
2019-03-30T07:30:13.551Z,78.38
2019-03-30T07:31:13.548Z,79.50
2019-03-30T07:32:13.530Z,74.46
2019-03-30T07:33:13.521Z,72.54
2019-03-30T07:34:13.514Z,71.82
2019-03-30T07:35:13.512Z,74.22
2019-03-30T07:36:13.515Z,71.92
2019-03-30T07:37:13.512Z,73.85
2019-03-30T07:38:13.502Z,75.60
2019-03-30T07:39:13.488Z,75.29
2019-03-30T07:40:13.490Z,76.11
2019-03-30T07:41:13.497Z,74.43
2019-03-30T07:42:13.482Z,69.46
2019-03-30T07:43:13.466Z,71.59
2019-03-30T07:44:13.459Z,67.11
2019-03-30T07:45:13.446Z,71.66
2019-03-30T07:46:13.449Z,70.12
2019-03-30T07:47:13.433Z,71.04
2019-03-30T07:48:13.424Z,70.97
2019-03-30T07:49:13.414Z,69.98
2019-03-30T07:50:13.409Z,70.50
2019-03-30T07:51:13.417Z,68.41
2019-03-30T07:52:13.391Z,66.81
2019-03-30T07:53:25.515Z,69.37
2019-03-30T07:54:15.375Z,70.59
2019-03-30T07:55:13.374Z,72.81
2019-03-30T07:56:13.399Z,73.88
2019-03-30T07:57:17.284Z,75.22
2019-03-30T07:58:14.383Z,74.19
2019-03-30T07:59:13.367Z,74.84
2019-03-30T08:00:13.363Z,75.35
2019-03-30T08:01:13.366Z,75.56
2019-03-30T08:02:13.353Z,75.32
2019-03-30T08:03:13.355Z,75.59
2019-03-30T08:04:13.331Z,74.57
2019-03-30T08:05:13.329Z,75.70
2019-03-30T08:06:13.333Z,74.33
2019-03-30T08:07:13.308Z,73.27
2019-03-30T08:08:14.030Z,74.46
2019-03-30T08:09:13.294Z,72.31
2019-03-30T08:10:13.287Z,72.65
2019-03-30T08:11:14.518Z,72.92
2019-03-30T08:12:14.280Z,71.48
2019-03-30T08:13:13.259Z,72.20
2019-03-30T08:14:13.263Z,72.48
2019-03-30T08:15:13.250Z,72.14
2019-03-30T08:16:13.253Z,72.44
2019-03-30T08:17:13.234Z,72.14
2019-03-30T08:18:13.223Z,72.14
2019-03-30T08:19:13.217Z,73.33
2019-03-30T08:20:13.210Z,71.52
2019-03-30T08:21:13.208Z,70.73
2019-03-30T08:22:13.196Z,72.65
2019-03-30T08:23:13.213Z,72.41
2019-03-30T08:24:13.200Z,70.29
2019-03-30T08:25:13.194Z,66.48
2019-03-30T08:26:13.218Z,65.36
2019-03-30T08:27:13.186Z,66.07
2019-03-30T08:28:13.182Z,66.31
2019-03-30T08:29:13.172Z,66.28
2019-03-30T08:30:13.169Z,64.68
2019-03-30T08:31:13.166Z,63.87
2019-03-30T08:32:13.158Z,61.91
2019-03-30T08:33:13.141Z,61.43
2019-03-30T08:34:13.131Z,64.46
2019-03-30T08:35:13.120Z,64.25
2019-03-30T08:36:13.143Z,67.96
2019-03-30T08:37:13.116Z,63.16
2019-03-30T08:38:13.100Z,61.88
2019-03-30T08:39:13.088Z,60.99
2019-03-30T08:40:13.085Z,66.49
2019-03-30T08:41:13.092Z,65.98
2019-03-30T08:42:13.069Z,64.45
2019-03-30T08:43:13.065Z,68.77
2019-03-30T08:44:13.060Z,64.55
2019-03-30T08:45:13.042Z,62.68
2019-03-30T08:46:13.036Z,62.65
2019-03-30T08:47:13.038Z,62.11
2019-03-30T08:48:13.019Z,61.27
2019-03-30T08:49:13.040Z,60.80
2019-03-30T08:50:13.000Z,60.80
2019-03-30T08:51:14.003Z,59.64
2019-03-30T08:52:13.002Z,62.37
2019-03-30T08:53:12.981Z,66.18
2019-03-30T08:54:12.970Z,62.65
2019-03-30T08:55:12.966Z,60.61
2019-03-30T08:56:12.963Z,60.51
2019-03-30T08:57:12.965Z,60.38
2019-03-30T08:58:12.943Z,59.33
2019-03-30T08:59:12.939Z,59.68
2019-03-30T09:00:12.939Z,57.21
2019-03-30T09:01:12.919Z,57.06
2019-03-30T09:02:12.920Z,55.55
2019-03-30T09:03:12.907Z,58.30
2019-03-30T09:04:12.898Z,57.24
2019-03-30T09:05:12.914Z,57.14
2019-03-30T09:06:12.890Z,58.18
2019-03-30T09:07:12.893Z,58.11
2019-03-30T09:08:12.885Z,58.01
2019-03-30T09:09:12.870Z,57.98
2019-03-30T09:10:12.857Z,59.17
2019-03-30T09:11:12.854Z,58.71
2019-03-30T09:12:12.941Z,57.52
2019-03-30T09:13:12.833Z,56.09
2019-03-30T09:14:12.824Z,56.90
2019-03-30T09:15:12.818Z,56.50
2019-03-30T09:16:12.810Z,56.95
2019-03-30T09:17:12.815Z,56.85
2019-03-30T09:18:12.803Z,57.34
2019-03-30T09:19:12.795Z,55.10
2019-03-30T09:20:12.788Z,54.28
2019-03-30T09:21:12.775Z,54.46
2019-03-30T09:22:12.775Z,53.83
2019-03-30T09:23:12.757Z,52.48
2019-03-30T09:24:12.746Z,52.58
2019-03-30T09:25:12.737Z,52.38
2019-03-30T09:26:12.735Z,52.99
2019-03-30T09:27:12.740Z,52.89
2019-03-30T09:28:12.721Z,55.76
2019-03-30T09:29:12.710Z,54.41
2019-03-30T09:30:12.702Z,56.52
2019-03-30T09:31:12.696Z,52.97
2019-03-30T09:32:14.609Z,52.66
2019-03-30T09:33:13.694Z,52.44
2019-03-30T09:34:12.669Z,52.41
2019-03-30T09:35:12.661Z,51.80
2019-03-30T09:36:12.658Z,51.80
2019-03-30T09:37:12.666Z,52.11
2019-03-30T09:38:14.803Z,52.61
2019-03-30T09:39:13.635Z,52.44
2019-03-30T09:40:12.625Z,55.20
2019-03-30T09:41:12.622Z,53.60
2019-03-30T09:42:12.629Z,53.67
2019-03-30T09:43:12.606Z,54.51
2019-03-30T09:44:12.609Z,54.26
2019-03-30T09:45:12.593Z,55.51
2019-03-30T09:46:12.578Z,55.40
2019-03-30T09:47:12.593Z,55.25
2019-03-30T09:48:12.562Z,56.95
2019-03-30T09:49:12.558Z,56.82
2019-03-30T09:50:12.558Z,53.88
2019-03-30T09:51:12.542Z,57.23
2019-03-30T09:52:12.549Z,57.64
2019-03-30T09:53:12.533Z,55.30
2019-03-30T09:54:23.213Z,55.50
2019-03-30T09:55:14.519Z,58.31
2019-03-30T09:56:12.513Z,56.09
2019-03-30T09:57:12.520Z,54.99
2019-03-30T09:58:12.498Z,55.50
2019-03-30T09:59:12.493Z,55.80
2019-03-30T10:00:13.479Z,54.77
2019-03-30T10:01:12.468Z,54.39
2019-03-30T10:02:12.502Z,58.62
2019-03-30T10:03:12.457Z,54.41
2019-03-30T10:04:12.452Z,53.19
2019-03-30T10:05:12.442Z,54.66
2019-03-30T10:06:12.446Z,57.23
2019-03-30T10:07:12.439Z,55.27
2019-03-30T10:08:12.418Z,54.31
2019-03-30T10:09:12.417Z,53.17
2019-03-30T10:10:12.411Z,52.56
2019-03-30T10:11:12.399Z,52.44
2019-03-30T10:12:12.402Z,52.48
2019-03-30T10:13:12.387Z,51.86
2019-03-30T10:14:12.373Z,53.34
2019-03-30T10:15:12.366Z,50.49
2019-03-30T10:16:12.362Z,49.87
2019-03-30T10:17:12.371Z,49.46
2019-03-30T10:18:12.345Z,51.05
2019-03-30T10:19:12.342Z,51.91
2019-03-30T10:20:12.327Z,50.12
2019-03-30T10:21:12.322Z,51.10
2019-03-30T10:22:12.326Z,50.80
2019-03-30T10:23:12.305Z,50.09
2019-03-30T10:24:12.297Z,49.76
2019-03-30T10:25:12.297Z,48.96
2019-03-30T10:26:12.291Z,49.89
2019-03-30T10:27:12.287Z,50.42
2019-03-30T10:28:12.267Z,51.18
2019-03-30T10:29:12.262Z,52.89
2019-03-30T10:30:12.255Z,49.52
2019-03-30T10:31:12.247Z,48.63
2019-03-30T10:32:12.252Z,48.35
2019-03-30T10:33:12.246Z,50.01
2019-03-30T10:34:12.229Z,49.38
2019-03-30T10:35:12.224Z,49.05
2019-03-30T10:36:12.228Z,52.14
2019-03-30T10:37:12.237Z,47.38
2019-03-30T10:38:12.216Z,46.79
2019-03-30T10:39:12.214Z,44.65
2019-03-30T10:40:12.201Z,42.61
2019-03-30T10:41:12.199Z,40.70
2019-03-30T10:42:12.198Z,41.75
2019-03-30T10:43:12.240Z,42.74
2019-03-30T10:44:12.178Z,43.14
2019-03-30T10:45:12.176Z,43.14
2019-03-30T10:46:12.160Z,45.62
2019-03-30T10:47:12.170Z,42.40
2019-03-30T10:48:12.146Z,42.70
2019-03-30T10:49:12.146Z,45.09
2019-03-30T10:50:12.132Z,45.00
2019-03-30T10:51:12.125Z,45.00
2019-03-30T10:52:12.132Z,45.92
2019-03-30T10:53:12.125Z,44.93
2019-03-30T10:54:12.108Z,45.14
2019-03-30T10:55:12.106Z,44.85
2019-03-30T10:56:12.090Z,47.66
2019-03-30T10:57:12.103Z,43.10
2019-03-30T10:58:12.084Z,46.65
2019-03-30T10:59:12.068Z,45.64
2019-03-30T11:00:12.065Z,44.57
2019-03-30T11:01:12.057Z,44.43
2019-03-30T11:02:12.071Z,44.53
2019-03-30T11:03:12.044Z,43.18
2019-03-30T11:04:12.039Z,41.39
2019-03-30T11:05:12.028Z,41.27
2019-03-30T11:06:12.028Z,42.66
2019-03-30T11:07:12.024Z,40.24
2019-03-30T11:08:12.002Z,44.37
2019-03-30T11:09:12.005Z,40.24
2019-03-30T11:10:12.030Z,40.14
2019-03-30T11:11:11.991Z,39.23
2019-03-30T11:12:11.987Z,40.84
2019-03-30T11:13:11.974Z,39.92
2019-03-30T11:14:11.967Z,40.44
2019-03-30T11:15:11.962Z,40.24
2019-03-30T11:16:11.955Z,40.84
2019-03-30T11:17:11.961Z,40.73
2019-03-30T11:18:11.945Z,40.42
2019-03-30T11:19:11.943Z,40.73
2019-03-30T11:20:11.937Z,41.13
2019-03-30T11:21:11.927Z,40.42
2019-03-30T11:22:11.939Z,42.24
2019-03-30T11:23:11.915Z,40.53
2019-03-30T11:24:11.915Z,40.24
2019-03-30T11:25:11.902Z,41.05
2019-03-30T11:26:11.896Z,42.61
2019-03-30T11:27:11.902Z,40.61
2019-03-30T11:28:11.886Z,39.01
2019-03-30T11:29:11.873Z,41.47
2019-03-30T11:30:11.887Z,40.56
2019-03-30T11:31:11.875Z,40.56
2019-03-30T11:32:11.871Z,40.56
2019-03-30T11:33:11.875Z,41.37
2019-03-30T11:34:11.872Z,41.17
2019-03-30T11:35:11.860Z,40.95
2019-03-30T11:36:11.855Z,40.77
2019-03-30T11:37:11.855Z,41.15
2019-03-30T11:38:11.908Z,41.53
2019-03-30T11:39:11.831Z,40.22
2019-03-30T11:40:11.827Z,40.53
2019-03-30T11:41:11.812Z,40.20
2019-03-30T11:42:11.810Z,40.48
2019-03-30T11:43:11.819Z,39.98
2019-03-30T11:44:11.792Z,39.47
2019-03-30T11:45:11.790Z,39.97
2019-03-30T11:46:11.795Z,41.09
2019-03-30T11:47:11.775Z,38.98
2019-03-30T11:48:11.780Z,38.68
2019-03-30T11:49:11.761Z,39.98
2019-03-30T11:50:11.754Z,38.90
2019-03-30T11:51:11.742Z,39.10
2019-03-30T11:52:11.733Z,38.48
2019-03-30T11:53:11.740Z,37.47
2019-03-30T11:54:11.722Z,37.35
2019-03-30T11:55:21.740Z,37.35
2019-03-30T11:56:13.704Z,37.17
2019-03-30T11:57:11.700Z,36.89
2019-03-30T11:58:11.704Z,36.58
2019-03-30T11:59:11.685Z,36.47
2019-03-30T12:00:11.675Z,35.64
2019-03-30T12:01:11.673Z,35.23
2019-03-30T12:02:11.658Z,35.26
2019-03-30T12:03:11.665Z,35.19
2019-03-30T12:04:11.656Z,35.48
2019-03-30T12:05:11.645Z,35.26
2019-03-30T12:06:11.643Z,35.26
2019-03-30T12:07:11.623Z,34.14
2019-03-30T12:08:11.630Z,33.62
2019-03-30T12:09:11.611Z,33.72
2019-03-30T12:10:11.610Z,33.42
2019-03-30T12:11:11.604Z,32.93
2019-03-30T12:12:11.595Z,33.04
2019-03-30T12:13:11.599Z,33.14
2019-03-30T12:14:11.584Z,31.33
2019-03-30T12:15:11.582Z,31.92
2019-03-30T12:16:11.568Z,32.14
2019-03-30T12:17:11.563Z,32.03
2019-03-30T12:18:11.563Z,31.62
2019-03-30T12:19:11.605Z,31.13
2019-03-30T12:20:11.536Z,31.13
2019-03-30T12:21:11.537Z,31.13
2019-03-30T12:22:11.533Z,30.83
2019-03-30T12:23:11.530Z,31.23
2019-03-30T12:24:11.511Z,31.93
2019-03-30T12:25:11.504Z,32.23
2019-03-30T12:26:11.497Z,32.20
2019-03-30T12:27:11.493Z,31.10
2019-03-30T12:28:11.492Z,30.88
2019-03-30T12:29:11.479Z,30.10
2019-03-30T12:30:11.474Z,31.92
2019-03-30T12:31:11.463Z,32.52
2019-03-30T12:32:11.453Z,31.92
2019-03-30T12:33:11.459Z,32.73
2019-03-30T12:34:13.095Z,32.92
2019-03-30T12:35:12.435Z,32.30
2019-03-30T12:36:11.425Z,31.79
2019-03-30T12:37:11.415Z,31.20
2019-03-30T12:38:11.429Z,32.10
2019-03-30T12:39:11.397Z,32.10
2019-03-30T12:40:11.392Z,32.02
2019-03-30T12:41:11.387Z,32.23
2019-03-30T12:42:11.391Z,30.94
2019-03-30T12:43:11.399Z,32.24
2019-03-30T12:44:11.377Z,30.35
2019-03-30T12:45:11.391Z,31.56
2019-03-30T12:46:11.383Z,31.16
2019-03-30T12:47:11.377Z,31.26
2019-03-30T12:48:11.390Z,31.27
2019-03-30T12:49:11.362Z,32.08
2019-03-30T12:50:11.357Z,32.68
2019-03-30T12:51:11.364Z,32.46
2019-03-30T12:52:11.355Z,31.66